メインページ
METAR-TAF:

METAR-TAF

空港 :

ダカール, セネガル

レオポール・セダール・サンゴール国際空港

緯度: 14-44N, 経度: 017-30W, 海抜: 27m

現時点の気象観測

当レポートは48分前の15:00(UTC)に作成
の風 6kt
気温 22°C
湿度 78%
気圧 1015 hPa
視程10km以上
高度1000ftの雲はほとんどない

METAR: GOOY 191500Z 36006KT 9999 FEW010 22/18 Q1015

時間: 15:48 (15:48 UTC)

予報

当レポートは4時間18分前の11:30(UTC)に作成
予報は19日の 12時(UTC)から 20日の 18時(UTC)まで有効
の風 12kt
視程10km以上
高度800ftの雲は散在している

TAF: GOOY 191130Z 1912/2018 36012KT 9999 SCT008

4,000以上の空港の気象観測と天気予報(METAR報とTAF報)

利用可能な観測所は地図上に黄色い丸と赤い丸で示す。

丸の上にカーソルを重ねると観測所名を参照できる。

次にクリックすると気象観測と天気予報を参照できる。

マップの切り替え:黒色「×」印の緑ボタンをクリックして拡大、「-」印の緑ボタンをクリックして縮小、緑色の三角印をクリックして隣りの地図に切り替え


METAR-TAF: